createdAt,value
2023-02-26T00:00:24.399Z,-1.26
2023-02-26T00:01:24.345Z,-1.33
2023-02-26T00:02:25.012Z,-1.35
2023-02-26T00:03:24.367Z,-1.36
2023-02-26T00:04:24.285Z,-1.39
2023-02-26T00:05:24.302Z,-1.46
2023-02-26T00:06:24.703Z,-1.44
2023-02-26T00:07:24.254Z,-1.43
2023-02-26T00:08:24.222Z,-1.43
2023-02-26T00:09:24.224Z,-1.44
2023-02-26T00:10:24.275Z,-1.41
2023-02-26T00:11:24.221Z,-1.41
2023-02-26T00:12:24.189Z,-1.41
2023-02-26T00:13:24.315Z,-1.41
2023-02-26T00:14:24.172Z,-1.41
2023-02-26T00:15:24.170Z,-1.41
2023-02-26T00:16:24.170Z,-1.41
2023-02-26T00:17:24.127Z,-1.38
2023-02-26T00:18:24.120Z,-1.41
2023-02-26T00:19:24.099Z,-1.43
2023-02-26T00:20:24.133Z,-1.43
2023-02-26T00:21:24.090Z,-1.47
2023-02-26T00:22:24.089Z,-1.49
2023-02-26T00:23:24.082Z,-1.53
2023-02-26T00:24:24.047Z,-1.50
2023-02-26T00:25:24.056Z,-1.49
2023-02-26T00:26:24.028Z,-1.51
2023-02-26T00:27:24.021Z,-1.50
2023-02-26T00:28:23.979Z,-1.49
2023-02-26T00:29:23.977Z,-1.50
2023-02-26T00:30:23.990Z,-1.53
2023-02-26T00:31:24.032Z,-1.51
2023-02-26T00:32:24.056Z,-1.57
2023-02-26T00:33:23.921Z,-1.53
2023-02-26T00:34:23.909Z,-1.53
2023-02-26T00:35:23.923Z,-1.53
2023-02-26T00:36:24.424Z,-1.51
2023-02-26T00:37:23.896Z,-1.51
2023-02-26T00:38:23.856Z,-1.51
2023-02-26T00:39:23.848Z,-1.54
2023-02-26T00:40:23.883Z,-1.51
2023-02-26T00:41:23.878Z,-1.54
2023-02-26T00:42:23.812Z,-1.51
2023-02-26T00:43:23.795Z,-1.50
2023-02-26T00:44:23.804Z,-1.50
2023-02-26T00:45:23.798Z,-1.46
2023-02-26T00:46:24.110Z,-1.46
2023-02-26T00:47:23.749Z,-1.46
2023-02-26T00:48:23.730Z,-1.47
2023-02-26T00:49:23.733Z,-1.49
2023-02-26T00:50:23.765Z,-1.51
2023-02-26T00:51:23.706Z,-1.50
2023-02-26T00:52:23.685Z,-1.50
2023-02-26T00:53:23.679Z,-1.54
2023-02-26T00:54:23.681Z,-1.56
2023-02-26T00:55:23.679Z,-1.61
2023-02-26T00:56:24.007Z,-1.61
2023-02-26T00:57:23.684Z,-1.62
2023-02-26T00:58:23.609Z,-1.64
2023-02-26T00:59:23.594Z,-1.62
2023-02-26T01:00:24.567Z,-1.65
2023-02-26T01:01:23.589Z,-1.67
2023-02-26T01:02:23.561Z,-1.65
2023-02-26T01:03:23.563Z,-1.67
2023-02-26T01:04:23.523Z,-1.67
2023-02-26T01:05:24.275Z,-1.67
2023-02-26T01:06:23.735Z,-1.65
2023-02-26T01:07:23.497Z,-1.67
2023-02-26T01:08:23.488Z,-1.65
2023-02-26T01:09:23.461Z,-1.67
2023-02-26T01:10:23.491Z,-1.68
2023-02-26T01:11:23.440Z,-1.70
2023-02-26T01:12:23.445Z,-1.70
2023-02-26T01:13:23.413Z,-1.68
2023-02-26T01:14:23.412Z,-1.72
2023-02-26T01:15:23.423Z,-1.72
2023-02-26T01:16:23.383Z,-1.72
2023-02-26T01:17:23.372Z,-1.78
2023-02-26T01:18:23.370Z,-1.77
2023-02-26T01:19:23.341Z,-1.80
2023-02-26T01:20:23.361Z,-1.82
2023-02-26T01:21:23.327Z,-1.80
2023-02-26T01:22:23.292Z,-1.77
2023-02-26T01:23:23.296Z,-1.78
2023-02-26T01:24:23.263Z,-1.78
2023-02-26T01:25:23.304Z,-1.77
2023-02-26T01:26:23.721Z,-1.82
2023-02-26T01:27:23.253Z,-1.82
2023-02-26T01:28:23.233Z,-1.85
2023-02-26T01:29:23.212Z,-1.88
2023-02-26T01:30:23.229Z,-1.85
2023-02-26T01:31:23.323Z,-1.90
2023-02-26T01:32:23.265Z,-1.88
2023-02-26T01:33:23.168Z,-1.88
2023-02-26T01:34:23.179Z,-1.89
2023-02-26T01:35:23.190Z,-1.90
2023-02-26T01:36:23.376Z,-1.88
2023-02-26T01:37:23.122Z,-1.89
2023-02-26T01:38:23.101Z,-1.86
2023-02-26T01:39:23.090Z,-1.85
2023-02-26T01:40:23.087Z,-1.78
2023-02-26T01:41:23.077Z,-1.80
2023-02-26T01:42:23.066Z,-1.75
2023-02-26T01:43:23.091Z,-1.72
2023-02-26T01:44:23.020Z,-1.72
2023-02-26T01:45:23.037Z,-1.67
2023-02-26T01:46:23.076Z,-1.64
2023-02-26T01:47:22.986Z,-1.64
2023-02-26T01:48:22.971Z,-1.59
2023-02-26T01:49:22.968Z,-1.59
2023-02-26T01:50:22.987Z,-1.56
2023-02-26T01:51:22.964Z,-1.53
2023-02-26T01:52:22.925Z,-1.57
2023-02-26T01:53:22.914Z,-1.56
2023-02-26T01:54:22.900Z,-1.54
2023-02-26T01:55:22.927Z,-1.54
2023-02-26T01:56:23.216Z,-1.51
2023-02-26T01:57:22.857Z,-1.49
2023-02-26T01:58:22.847Z,-1.50
2023-02-26T01:59:22.836Z,-1.51
2023-02-26T02:00:22.847Z,-1.47
2023-02-26T02:01:22.816Z,-1.46
2023-02-26T02:02:22.903Z,-1.46
2023-02-26T02:03:22.911Z,-1.38
2023-02-26T02:04:22.783Z,-1.38
2023-02-26T02:05:22.804Z,-1.39
2023-02-26T02:06:23.023Z,-1.35
2023-02-26T02:07:22.725Z,-1.32
2023-02-26T02:08:22.721Z,-1.31
2023-02-26T02:09:22.702Z,-1.31
2023-02-26T02:10:22.716Z,-1.25
2023-02-26T02:11:22.698Z,-1.28
2023-02-26T02:12:22.661Z,-1.26
2023-02-26T02:13:22.653Z,-1.25
2023-02-26T02:14:22.648Z,-1.23
2023-02-26T02:15:22.650Z,-1.18
2023-02-26T02:16:22.741Z,-1.20
2023-02-26T02:17:22.599Z,-1.21
2023-02-26T02:18:22.594Z,-1.20
2023-02-26T02:19:22.580Z,-1.17
2023-02-26T02:20:22.683Z,-1.17
2023-02-26T02:21:22.545Z,-1.15
2023-02-26T02:22:22.541Z,-1.14
2023-02-26T02:23:22.522Z,-1.10
2023-02-26T02:24:22.524Z,-1.10
2023-02-26T02:25:22.517Z,-1.11
2023-02-26T02:26:22.559Z,-1.10
2023-02-26T02:27:22.463Z,-1.11
2023-02-26T02:28:22.467Z,-1.08
2023-02-26T02:29:22.443Z,-1.11
2023-02-26T02:30:22.439Z,-1.08
2023-02-26T02:31:22.549Z,-1.05
2023-02-26T02:32:22.485Z,-1.03
2023-02-26T02:33:22.394Z,-1.02
2023-02-26T02:34:22.383Z,-1.03
2023-02-26T02:35:22.361Z,-1.05
2023-02-26T02:36:22.379Z,-1.07
2023-02-26T02:37:22.330Z,-1.07
2023-02-26T02:38:22.336Z,-1.05
2023-02-26T02:39:22.306Z,-1.07
2023-02-26T02:40:22.315Z,-1.03
2023-02-26T02:41:22.321Z,-1.02
2023-02-26T02:42:22.280Z,-1.03
2023-02-26T02:43:22.274Z,-1.03
2023-02-26T02:44:22.253Z,-1.07
2023-02-26T02:45:22.244Z,-1.03
2023-02-26T02:46:22.391Z,-1.05
2023-02-26T02:47:22.209Z,-1.05
2023-02-26T02:48:22.239Z,-1.05
2023-02-26T02:49:22.185Z,-1.00
2023-02-26T02:50:22.189Z,-1.00
2023-02-26T02:51:22.248Z,-1.00
2023-02-26T02:52:22.160Z,-1.00
2023-02-26T02:53:22.140Z,-1.02
2023-02-26T02:54:22.118Z,-1.00
2023-02-26T02:55:22.139Z,-1.03
2023-02-26T02:56:22.158Z,-1.00
2023-02-26T02:57:22.086Z,-0.99
2023-02-26T02:58:22.109Z,-1.00
2023-02-26T02:59:22.078Z,-0.97
2023-02-26T03:00:22.039Z,-0.99
2023-02-26T03:01:22.173Z,-0.99
2023-02-26T03:02:22.037Z,-1.00
2023-02-26T03:03:22.009Z,-0.95
2023-02-26T03:04:21.988Z,-0.93
2023-02-26T03:05:21.989Z,-0.99
2023-02-26T03:06:21.996Z,-0.96
2023-02-26T03:07:21.958Z,-0.99
2023-02-26T03:08:21.964Z,-0.95
2023-02-26T03:09:21.961Z,-0.97
2023-02-26T03:10:21.937Z,-0.95
2023-02-26T03:11:21.945Z,-0.96
2023-02-26T03:12:21.888Z,-0.95
2023-02-26T03:13:21.889Z,-0.99
2023-02-26T03:14:21.869Z,-0.97
2023-02-26T03:15:21.861Z,-0.96
2023-02-26T03:16:21.944Z,-0.96
2023-02-26T03:17:21.871Z,-0.97
2023-02-26T03:18:21.823Z,-0.92
2023-02-26T03:19:21.805Z,-0.95
2023-02-26T03:20:21.800Z,-0.97
2023-02-26T03:21:21.887Z,-0.96
2023-02-26T03:22:21.765Z,-0.96
2023-02-26T03:23:21.761Z,-0.97
2023-02-26T03:24:21.765Z,-1.00
2023-02-26T03:25:21.732Z,-0.99
2023-02-26T03:26:21.744Z,-1.00
2023-02-26T03:27:21.713Z,-1.03
2023-02-26T03:28:21.686Z,-1.03
2023-02-26T03:29:21.685Z,-1.02
2023-02-26T03:30:21.710Z,-1.03
2023-02-26T03:31:21.728Z,-1.02
2023-02-26T03:32:21.787Z,-1.02
2023-02-26T03:33:21.639Z,-1.05
2023-02-26T03:34:21.606Z,-1.07
2023-02-26T03:35:21.609Z,-1.03
2023-02-26T03:36:21.638Z,-1.07
2023-02-26T03:37:21.588Z,-1.10
2023-02-26T03:38:21.568Z,-1.08
2023-02-26T03:39:21.562Z,-1.11
2023-02-26T03:40:21.537Z,-1.11
2023-02-26T03:41:21.556Z,-1.15
2023-02-26T03:42:21.517Z,-1.15
2023-02-26T03:43:21.505Z,-1.15
2023-02-26T03:44:21.500Z,-1.15
2023-02-26T03:45:21.507Z,-1.20
2023-02-26T03:46:21.514Z,-1.20
2023-02-26T03:47:21.477Z,-1.21
2023-02-26T03:48:21.454Z,-1.18
2023-02-26T03:49:21.448Z,-1.21
2023-02-26T03:50:21.431Z,-1.20
2023-02-26T03:51:21.434Z,-1.18
2023-02-26T03:52:21.423Z,-1.20
2023-02-26T03:53:21.374Z,-1.20
2023-02-26T03:54:21.375Z,-1.25
2023-02-26T03:55:21.392Z,-1.20
2023-02-26T03:56:21.394Z,-1.21
2023-02-26T03:57:21.333Z,-1.21
2023-02-26T03:58:21.310Z,-1.20
2023-02-26T03:59:21.476Z,-1.23
2023-02-26T04:00:21.287Z,-1.23
2023-02-26T04:01:21.604Z,-1.26
2023-02-26T04:02:21.360Z,-1.25
2023-02-26T04:03:21.496Z,-1.25
2023-02-26T04:04:21.395Z,-1.25
2023-02-26T04:05:21.222Z,-1.28
2023-02-26T04:06:21.232Z,-1.29
2023-02-26T04:07:21.228Z,-1.31
2023-02-26T04:08:21.373Z,-1.32
2023-02-26T04:09:21.327Z,-1.35
2023-02-26T04:10:21.159Z,-1.33
2023-02-26T04:11:21.192Z,-1.36
2023-02-26T04:12:21.133Z,-1.35
2023-02-26T04:13:21.119Z,-1.39
2023-02-26T04:14:21.142Z,-1.38
2023-02-26T04:15:21.106Z,-1.43
2023-02-26T04:16:21.125Z,-1.43
2023-02-26T04:17:21.253Z,-1.49
2023-02-26T04:18:21.220Z,-1.50
2023-02-26T04:19:21.051Z,-1.51
2023-02-26T04:20:21.120Z,-1.54
2023-02-26T04:21:21.037Z,-1.59
2023-02-26T04:22:21.033Z,-1.61
2023-02-26T04:23:21.023Z,-1.62
2023-02-26T04:24:20.981Z,-1.64
2023-02-26T04:25:20.977Z,-1.67
2023-02-26T04:26:20.957Z,-1.71
2023-02-26T04:27:20.967Z,-1.74
2023-02-26T04:28:20.951Z,-1.75
2023-02-26T04:29:20.921Z,-1.77
2023-02-26T04:30:20.897Z,-1.78
2023-02-26T04:31:20.956Z,-1.83
2023-02-26T04:32:20.950Z,-1.88
2023-02-26T04:33:20.865Z,-1.88
2023-02-26T04:34:20.865Z,-1.89
2023-02-26T04:35:20.843Z,-1.86
2023-02-26T04:36:20.821Z,-1.90
2023-02-26T04:37:20.866Z,-1.90
2023-02-26T04:38:20.800Z,-1.90
2023-02-26T04:39:20.788Z,-1.88
2023-02-26T04:40:20.769Z,-1.86
2023-02-26T04:41:20.768Z,-1.85
2023-02-26T04:42:20.769Z,-1.82
2023-02-26T04:43:20.740Z,-1.78
2023-02-26T04:44:20.719Z,-1.72
2023-02-26T04:45:20.710Z,-1.74
2023-02-26T04:46:20.736Z,-1.70
2023-02-26T04:47:20.716Z,-1.65
2023-02-26T04:48:20.675Z,-1.62
2023-02-26T04:49:20.664Z,-1.59
2023-02-26T04:50:20.647Z,-1.57
2023-02-26T04:51:20.625Z,-1.54
2023-02-26T04:52:20.687Z,-1.51
2023-02-26T04:53:20.617Z,-1.51
2023-02-26T04:54:20.595Z,-1.51
2023-02-26T04:55:20.591Z,-1.49
2023-02-26T04:56:20.587Z,-1.50
2023-02-26T04:57:20.588Z,-1.47
2023-02-26T04:58:20.549Z,-1.46
2023-02-26T04:59:20.540Z,-1.43
2023-02-26T05:00:20.543Z,-1.41
2023-02-26T05:01:20.541Z,-1.39
2023-02-26T05:02:20.543Z,-1.39
2023-02-26T05:03:20.480Z,-1.35
2023-02-26T05:04:20.504Z,-1.33
2023-02-26T05:05:20.456Z,-1.33
2023-02-26T05:06:20.456Z,-1.33
2023-02-26T05:07:20.468Z,-1.29
2023-02-26T05:08:20.408Z,-1.31
2023-02-26T05:09:20.406Z,-1.26
2023-02-26T05:10:20.393Z,-1.28
2023-02-26T05:11:20.390Z,-1.25
2023-02-26T05:12:20.395Z,-1.25
2023-02-26T05:13:20.384Z,-1.23
2023-02-26T05:14:20.358Z,-1.23
2023-02-26T05:15:20.328Z,-1.21
2023-02-26T05:16:20.365Z,-1.20
2023-02-26T05:17:20.377Z,-1.18
2023-02-26T05:18:20.311Z,-1.18
2023-02-26T05:19:20.285Z,-1.17
2023-02-26T05:20:20.255Z,-1.17
2023-02-26T05:21:20.258Z,-1.17
2023-02-26T05:22:20.265Z,-1.15
2023-02-26T05:23:20.229Z,-1.17
2023-02-26T05:24:20.205Z,-1.15
2023-02-26T05:25:20.210Z,-1.15
2023-02-26T05:26:20.184Z,-1.14
2023-02-26T05:27:20.219Z,-1.10
2023-02-26T05:28:20.168Z,-1.13
2023-02-26T05:29:20.160Z,-1.11
2023-02-26T05:30:20.141Z,-1.18
2023-02-26T05:31:20.180Z,-1.14
2023-02-26T05:32:20.213Z,-1.14
2023-02-26T05:33:20.094Z,-1.13
2023-02-26T05:34:20.083Z,-1.14
2023-02-26T05:35:20.092Z,-1.10
2023-02-26T05:36:20.051Z,-1.14
2023-02-26T05:37:20.072Z,-1.14
2023-02-26T05:38:20.103Z,-1.13
2023-02-26T05:39:20.041Z,-1.13
2023-02-26T05:40:20.014Z,-1.14
2023-02-26T05:41:20.003Z,-1.15
2023-02-26T05:42:20.024Z,-1.14
2023-02-26T05:43:19.991Z,-1.14
2023-02-26T05:44:19.984Z,-1.17
2023-02-26T05:45:19.956Z,-1.15
2023-02-26T05:46:20.001Z,-1.15
2023-02-26T05:47:19.982Z,-1.14
2023-02-26T05:48:19.901Z,-1.14
2023-02-26T05:49:19.898Z,-1.11
2023-02-26T05:50:19.886Z,-1.14
2023-02-26T05:51:19.864Z,-1.11
2023-02-26T05:52:19.828Z,-1.11
2023-02-26T05:53:19.851Z,-1.13
2023-02-26T05:54:19.828Z,-1.11
2023-02-26T05:55:19.850Z,-1.11
2023-02-26T05:56:19.763Z,-1.11
2023-02-26T05:57:19.765Z,-1.13
2023-02-26T05:58:19.763Z,-1.11
2023-02-26T05:59:19.774Z,-1.14
2023-02-26T06:00:19.751Z,-1.15
2023-02-26T06:01:19.704Z,-1.14
2023-02-26T06:02:19.742Z,-1.14
2023-02-26T06:03:19.724Z,-1.17
2023-02-26T06:04:19.635Z,-1.14
2023-02-26T06:05:19.633Z,-1.17
2023-02-26T06:06:19.612Z,-1.14
2023-02-26T06:07:19.841Z,-1.14
2023-02-26T06:08:19.589Z,-1.17
2023-02-26T06:09:19.673Z,-1.15
2023-02-26T06:10:19.570Z,-1.13
2023-02-26T06:11:19.564Z,-1.17
2023-02-26T06:12:20.543Z,-1.14
2023-02-26T06:13:20.451Z,-1.13
2023-02-26T06:14:19.606Z,-1.15
2023-02-26T06:15:19.530Z,-1.13
2023-02-26T06:16:19.730Z,-1.11
2023-02-26T06:17:19.680Z,-1.14
2023-02-26T06:18:19.636Z,-1.08
2023-02-26T06:19:19.570Z,-1.13
2023-02-26T06:20:19.577Z,-1.14
2023-02-26T06:21:19.676Z,-1.14
2023-02-26T06:22:19.451Z,-1.10
2023-02-26T06:23:19.405Z,-1.10
2023-02-26T06:24:19.429Z,-1.11
2023-02-26T06:25:19.378Z,-1.11
2023-02-26T06:26:19.381Z,-1.10
2023-02-26T06:27:19.387Z,-1.08
2023-02-26T06:28:19.537Z,-1.10
2023-02-26T06:29:19.465Z,-1.10
2023-02-26T06:30:19.309Z,-1.13
2023-02-26T06:31:19.419Z,-1.10
2023-02-26T06:32:19.647Z,-1.08
2023-02-26T06:33:19.514Z,-1.14
2023-02-26T06:34:19.276Z,-1.08
2023-02-26T06:35:19.414Z,-1.08
2023-02-26T06:36:19.238Z,-1.08
2023-02-26T06:37:19.258Z,-1.10
2023-02-26T06:38:19.353Z,-1.07
2023-02-26T06:39:19.291Z,-1.10
2023-02-26T06:40:19.242Z,-1.11
2023-02-26T06:41:19.375Z,-1.08
2023-02-26T06:42:20.219Z,-1.11
2023-02-26T06:43:19.169Z,-1.08
2023-02-26T06:44:19.322Z,-1.11
2023-02-26T06:45:19.122Z,-1.11
2023-02-26T06:46:19.214Z,-1.07
2023-02-26T06:47:19.262Z,-1.08
2023-02-26T06:48:19.338Z,-1.08
2023-02-26T06:49:19.075Z,-1.05
2023-02-26T06:50:19.211Z,-1.05
2023-02-26T06:51:19.056Z,-1.03
2023-02-26T06:52:19.158Z,-1.03
2023-02-26T06:53:19.020Z,-1.02
2023-02-26T06:54:19.136Z,-1.02
2023-02-26T06:55:19.000Z,-1.00
2023-02-26T06:56:18.999Z,-1.03
2023-02-26T06:57:19.140Z,-0.99
2023-02-26T06:58:19.100Z,-0.97
2023-02-26T06:59:19.781Z,-0.95
2023-02-26T07:00:19.147Z,-0.96
2023-02-26T07:01:18.951Z,-0.92
2023-02-26T07:02:18.993Z,-0.96
2023-02-26T07:03:18.897Z,-0.93
2023-02-26T07:04:20.730Z,-0.93
2023-02-26T07:05:18.878Z,-0.92
2023-02-26T07:06:27.402Z,-0.93
2023-02-26T07:07:19.875Z,-0.92
2023-02-26T07:08:18.834Z,-0.86
2023-02-26T07:09:18.916Z,-0.86
2023-02-26T07:10:18.806Z,-0.83
2023-02-26T07:11:18.796Z,-0.80
2023-02-26T07:12:18.823Z,-0.78
2023-02-26T07:13:18.764Z,-0.76
2023-02-26T07:14:18.752Z,-0.73
2023-02-26T07:15:18.753Z,-0.73
2023-02-26T07:16:18.817Z,-0.76
2023-02-26T07:17:18.743Z,-0.70
2023-02-26T07:18:18.714Z,-0.70
2023-02-26T07:19:18.836Z,-0.67
2023-02-26T07:20:18.686Z,-0.70
2023-02-26T07:21:18.653Z,-0.71
2023-02-26T07:22:20.336Z,-0.70
2023-02-26T07:23:18.643Z,-0.73
2023-02-26T07:24:18.623Z,-0.71
2023-02-26T07:25:18.602Z,-0.71
2023-02-26T07:26:18.601Z,-0.73
2023-02-26T07:27:18.637Z,-0.71
2023-02-26T07:28:18.580Z,-0.71
2023-02-26T07:29:18.559Z,-0.68
2023-02-26T07:30:18.563Z,-0.63
2023-02-26T07:31:18.671Z,-0.62
2023-02-26T07:32:18.609Z,-0.60
2023-02-26T07:33:18.500Z,-0.58
2023-02-26T07:34:18.499Z,-0.59
2023-02-26T07:35:18.504Z,-0.56
2023-02-26T07:36:18.494Z,-0.50
2023-02-26T07:37:18.458Z,-0.50
2023-02-26T07:38:19.613Z,-0.45
2023-02-26T07:39:18.439Z,-0.42
2023-02-26T07:40:18.425Z,-0.35
2023-02-26T07:41:18.417Z,-0.32
2023-02-26T07:42:18.409Z,-0.32
2023-02-26T07:43:18.395Z,-0.24
2023-02-26T07:44:18.387Z,-0.24
2023-02-26T07:45:18.358Z,-0.14
2023-02-26T07:46:18.409Z,-0.13
2023-02-26T07:47:18.327Z,-0.16
2023-02-26T07:48:18.377Z,-0.19
2023-02-26T07:49:18.300Z,-0.16
2023-02-26T07:50:18.319Z,-0.19
2023-02-26T07:51:18.311Z,-0.17
2023-02-26T07:52:18.279Z,-0.20
2023-02-26T07:53:18.280Z,-0.16
2023-02-26T07:54:18.256Z,-0.13
2023-02-26T07:55:18.231Z,-0.13
2023-02-26T07:56:18.210Z,-0.09
2023-02-26T07:57:18.191Z,-0.13
2023-02-26T07:58:18.261Z,-0.14
2023-02-26T07:59:18.170Z,-0.16
2023-02-26T08:00:18.158Z,-0.16
2023-02-26T08:01:18.191Z,-0.02
2023-02-26T08:02:18.147Z,-0.02
2023-02-26T08:03:18.152Z,-0.01
2023-02-26T08:04:18.182Z,0.01
2023-02-26T08:05:18.095Z,-0.06
2023-02-26T08:06:18.086Z,-0.05
2023-02-26T08:07:18.077Z,-0.01
2023-02-26T08:08:18.127Z,0.05
2023-02-26T08:09:18.049Z,0.17
2023-02-26T08:10:18.044Z,0.34
2023-02-26T08:11:18.017Z,0.51
2023-02-26T08:12:18.021Z,0.75
2023-02-26T08:13:18.025Z,0.93
2023-02-26T08:14:18.004Z,0.96
2023-02-26T08:15:17.979Z,1.02
2023-02-26T08:16:18.039Z,1.08
2023-02-26T08:17:17.961Z,1.10
2023-02-26T08:18:17.978Z,1.20
2023-02-26T08:19:17.906Z,1.28
2023-02-26T08:20:17.918Z,1.38
2023-02-26T08:21:17.903Z,1.38
2023-02-26T08:22:17.970Z,1.34
2023-02-26T08:23:17.891Z,1.34
2023-02-26T08:24:17.864Z,1.42
2023-02-26T08:25:17.844Z,1.47
2023-02-26T08:26:17.841Z,1.54
2023-02-26T08:27:17.914Z,1.68
2023-02-26T08:28:17.983Z,1.71
2023-02-26T08:29:17.840Z,1.82
2023-02-26T08:30:17.827Z,1.95
2023-02-26T08:31:17.885Z,2.05
2023-02-26T08:32:17.952Z,2.11
2023-02-26T08:33:17.807Z,2.15
2023-02-26T08:34:17.816Z,2.30
2023-02-26T08:35:17.716Z,2.51
2023-02-26T08:36:17.753Z,2.53
2023-02-26T08:37:17.735Z,2.55
2023-02-26T08:38:17.863Z,2.65
2023-02-26T08:39:17.692Z,2.79
2023-02-26T08:40:17.727Z,2.95
2023-02-26T08:41:17.666Z,3.05
2023-02-26T08:42:17.693Z,2.98
2023-02-26T08:43:18.381Z,3.25
2023-02-26T08:44:18.234Z,3.37
2023-02-26T08:45:18.092Z,3.26
2023-02-26T08:46:17.651Z,2.95
2023-02-26T08:47:28.159Z,2.69
2023-02-26T08:48:18.574Z,2.61
2023-02-26T08:49:17.528Z,2.68
2023-02-26T08:50:17.615Z,2.69
2023-02-26T08:51:17.548Z,2.65
2023-02-26T08:52:17.523Z,2.69
2023-02-26T08:53:17.628Z,2.76
2023-02-26T08:54:17.521Z,2.65
2023-02-26T08:55:17.495Z,2.58
2023-02-26T08:56:17.463Z,2.51
2023-02-26T08:57:17.593Z,2.48
2023-02-26T08:58:17.617Z,2.44
2023-02-26T08:59:18.391Z,2.40
2023-02-26T09:00:17.389Z,2.01
2023-02-26T09:01:17.373Z,1.95
2023-02-26T09:02:17.392Z,1.79
2023-02-26T09:03:17.474Z,1.77
2023-02-26T09:04:17.339Z,1.77
2023-02-26T09:05:17.391Z,1.77
2023-02-26T09:06:21.509Z,1.83
2023-02-26T09:07:17.312Z,1.83
2023-02-26T09:08:17.340Z,1.82
2023-02-26T09:09:17.278Z,1.90
2023-02-26T09:10:17.310Z,1.93
2023-02-26T09:11:17.410Z,1.81
2023-02-26T09:12:17.276Z,1.85
2023-02-26T09:13:17.245Z,1.89
2023-02-26T09:14:17.208Z,2.07
2023-02-26T09:15:17.193Z,2.22
2023-02-26T09:16:17.221Z,2.22
2023-02-26T09:17:17.171Z,2.07
2023-02-26T09:18:17.201Z,2.12
2023-02-26T09:19:17.149Z,2.29
2023-02-26T09:20:17.137Z,2.33
2023-02-26T09:21:17.147Z,2.20
2023-02-26T09:22:17.131Z,2.19
2023-02-26T09:23:17.127Z,2.20
2023-02-26T09:24:17.087Z,2.22
2023-02-26T09:25:17.087Z,2.18
2023-02-26T09:26:17.101Z,2.19
2023-02-26T09:27:17.080Z,2.20
2023-02-26T09:28:17.095Z,2.20
2023-02-26T09:29:17.035Z,2.26
2023-02-26T09:30:17.004Z,2.26
2023-02-26T09:31:17.049Z,2.27
2023-02-26T09:32:17.546Z,2.27
2023-02-26T09:33:16.986Z,2.26
2023-02-26T09:34:16.971Z,2.29
2023-02-26T09:35:16.953Z,2.27
2023-02-26T09:36:16.947Z,2.23
2023-02-26T09:37:16.936Z,2.22
2023-02-26T09:38:16.944Z,2.20
2023-02-26T09:39:16.897Z,2.11
2023-02-26T09:40:16.876Z,1.89
2023-02-26T09:41:17.004Z,1.64
2023-02-26T09:42:17.038Z,1.39
2023-02-26T09:43:16.961Z,1.20
2023-02-26T09:44:16.930Z,1.10
2023-02-26T09:45:16.822Z,1.08
2023-02-26T09:46:16.928Z,1.10
2023-02-26T09:47:16.793Z,1.11
2023-02-26T09:48:16.968Z,1.16
2023-02-26T09:49:16.753Z,1.21
2023-02-26T09:50:16.810Z,1.28
2023-02-26T09:51:16.731Z,1.34
2023-02-26T09:52:16.737Z,1.56
2023-02-26T09:53:16.850Z,1.71
2023-02-26T09:54:17.017Z,1.92
2023-02-26T09:55:16.831Z,2.08
2023-02-26T09:56:16.724Z,2.11
2023-02-26T09:57:16.694Z,2.32
2023-02-26T09:58:18.719Z,2.30
2023-02-26T09:59:16.783Z,2.47
2023-02-26T10:00:16.888Z,2.71
2023-02-26T10:01:20.392Z,2.47
2023-02-26T10:02:16.734Z,2.59
2023-02-26T10:03:16.605Z,2.66
2023-02-26T10:04:19.413Z,2.89
2023-02-26T10:05:16.651Z,3.13
2023-02-26T10:06:16.562Z,3.12
2023-02-26T10:07:16.545Z,2.92
2023-02-26T10:08:16.604Z,3.07
2023-02-26T10:09:16.612Z,3.22
2023-02-26T10:10:16.526Z,3.39
2023-02-26T10:11:16.487Z,3.54
2023-02-26T10:12:16.483Z,3.64
2023-02-26T10:13:20.713Z,3.75
2023-02-26T10:14:16.450Z,3.89
2023-02-26T10:15:16.631Z,3.99
2023-02-26T10:16:16.465Z,3.72
2023-02-26T10:17:16.558Z,3.80
2023-02-26T10:18:16.551Z,3.86
2023-02-26T10:19:16.398Z,3.81
2023-02-26T10:20:16.574Z,3.95
2023-02-26T10:21:16.530Z,3.93
2023-02-26T10:22:16.473Z,4.11
2023-02-26T10:23:16.470Z,4.26
2023-02-26T10:24:16.352Z,4.34
2023-02-26T10:25:16.944Z,4.53
2023-02-26T10:26:16.373Z,4.54
2023-02-26T10:27:16.291Z,4.64
2023-02-26T10:28:16.354Z,4.74
2023-02-26T10:29:16.332Z,4.74
2023-02-26T10:30:16.371Z,4.54
2023-02-26T10:31:16.310Z,4.43
2023-02-26T10:32:16.413Z,4.39
2023-02-26T10:33:16.197Z,4.35
2023-02-26T10:34:16.310Z,4.29
2023-02-26T10:35:16.184Z,4.14
2023-02-26T10:36:16.235Z,4.21
2023-02-26T10:37:17.178Z,4.32
2023-02-26T10:38:16.128Z,4.26
2023-02-26T10:39:16.258Z,4.46
2023-02-26T10:40:16.103Z,4.49
2023-02-26T10:41:16.114Z,4.59
2023-02-26T10:42:16.083Z,4.72
2023-02-26T10:43:16.066Z,4.94
2023-02-26T10:44:16.094Z,4.91
2023-02-26T10:45:16.032Z,5.04
2023-02-26T10:46:16.081Z,4.96
2023-02-26T10:47:16.090Z,4.93
2023-02-26T10:48:16.093Z,5.04
2023-02-26T10:49:16.033Z,5.19
2023-02-26T10:50:16.020Z,5.40
2023-02-26T10:51:15.956Z,5.49
2023-02-26T10:52:16.089Z,5.65
2023-02-26T10:53:15.933Z,5.80
2023-02-26T10:54:15.954Z,5.77
2023-02-26T10:55:15.952Z,5.81
2023-02-26T10:56:15.903Z,5.81
2023-02-26T10:57:15.878Z,5.85
2023-02-26T10:58:15.862Z,5.75
2023-02-26T10:59:16.825Z,5.37
2023-02-26T11:00:15.841Z,4.96
2023-02-26T11:01:15.854Z,4.96
2023-02-26T11:02:15.856Z,4.83
2023-02-26T11:03:15.802Z,4.71
2023-02-26T11:04:15.812Z,4.36
2023-02-26T11:05:15.805Z,3.92
2023-02-26T11:06:15.773Z,3.72
2023-02-26T11:07:15.789Z,3.62
2023-02-26T11:08:15.739Z,3.64
2023-02-26T11:09:15.806Z,3.72
2023-02-26T11:10:15.754Z,3.88
2023-02-26T11:11:15.703Z,4.21
2023-02-26T11:12:15.803Z,4.59
2023-02-26T11:13:15.747Z,4.97
2023-02-26T11:14:15.666Z,5.22
2023-02-26T11:15:15.720Z,5.44
2023-02-26T11:16:15.797Z,5.20
2023-02-26T11:17:20.069Z,5.11
2023-02-26T11:18:15.614Z,5.06
2023-02-26T11:19:15.878Z,5.23
2023-02-26T11:20:15.652Z,5.41
2023-02-26T11:21:15.703Z,5.66
2023-02-26T11:22:16.535Z,5.93
2023-02-26T11:23:15.833Z,6.19
2023-02-26T11:24:19.858Z,6.20
2023-02-26T11:25:15.520Z,6.24
2023-02-26T11:26:16.547Z,6.14
2023-02-26T11:27:15.577Z,6.01
2023-02-26T11:28:15.733Z,5.92
2023-02-26T11:29:15.604Z,5.85
2023-02-26T11:30:15.682Z,5.88
2023-02-26T11:31:15.681Z,5.98
2023-02-26T11:32:15.669Z,5.92
2023-02-26T11:33:15.577Z,6.11
2023-02-26T11:34:15.675Z,6.10
2023-02-26T11:35:16.067Z,5.77
2023-02-26T11:36:15.552Z,5.22
2023-02-26T11:37:16.338Z,5.05
2023-02-26T11:38:17.200Z,4.90
2023-02-26T11:39:16.998Z,4.68
2023-02-26T11:40:15.433Z,4.54
2023-02-26T11:41:15.398Z,4.54
2023-02-26T11:42:15.391Z,4.62
2023-02-26T11:43:15.387Z,4.84
2023-02-26T11:44:16.061Z,4.94
2023-02-26T11:45:17.036Z,5.08
2023-02-26T11:46:17.808Z,5.04
2023-02-26T11:47:15.298Z,5.04
2023-02-26T11:48:15.421Z,4.91
2023-02-26T11:49:15.994Z,4.87
2023-02-26T11:50:16.962Z,4.84
2023-02-26T11:51:15.175Z,5.02
2023-02-26T11:52:15.350Z,5.20
2023-02-26T11:53:15.202Z,5.17
2023-02-26T11:54:15.197Z,5.01
2023-02-26T11:55:15.139Z,5.02
2023-02-26T11:56:15.203Z,4.83
2023-02-26T11:57:15.299Z,4.43
2023-02-26T11:58:15.331Z,4.26
2023-02-26T11:59:15.178Z,4.08
2023-02-26T12:00:15.059Z,3.78
2023-02-26T12:01:15.077Z,3.80
2023-02-26T12:02:15.131Z,3.77
2023-02-26T12:03:15.219Z,3.98
2023-02-26T12:04:15.032Z,4.24
2023-02-26T12:05:14.987Z,4.44
2023-02-26T12:06:15.117Z,4.59
2023-02-26T12:07:15.027Z,4.56
2023-02-26T12:08:14.960Z,4.47
2023-02-26T12:09:15.179Z,4.47
2023-02-26T12:10:14.925Z,4.49
2023-02-26T12:11:15.037Z,4.62
2023-02-26T12:12:14.925Z,4.87
2023-02-26T12:13:15.194Z,5.15
2023-02-26T12:14:15.114Z,5.40
2023-02-26T12:15:14.862Z,5.62
2023-02-26T12:16:15.495Z,5.66
2023-02-26T12:17:14.990Z,5.63
2023-02-26T12:18:15.852Z,5.59
2023-02-26T12:19:14.953Z,5.66
2023-02-26T12:20:14.893Z,5.47
2023-02-26T12:21:19.180Z,5.14
2023-02-26T12:22:14.815Z,5.09
2023-02-26T12:23:19.243Z,5.12
2023-02-26T12:24:15.003Z,5.20
2023-02-26T12:25:14.784Z,5.15
2023-02-26T12:26:14.808Z,5.05
2023-02-26T12:27:14.754Z,4.97
2023-02-26T12:28:14.698Z,4.96
2023-02-26T12:29:14.918Z,4.79
2023-02-26T12:30:14.670Z,4.64
2023-02-26T12:31:14.910Z,4.56
2023-02-26T12:32:14.787Z,4.44
2023-02-26T12:33:14.633Z,4.25
2023-02-26T12:34:14.677Z,4.06
2023-02-26T12:35:14.620Z,3.92
2023-02-26T12:36:14.615Z,3.70
2023-02-26T12:37:14.596Z,3.52
2023-02-26T12:38:15.557Z,3.33
2023-02-26T12:39:14.746Z,3.30
2023-02-26T12:40:15.281Z,3.17
2023-02-26T12:41:14.546Z,3.04
2023-02-26T12:42:14.675Z,2.90
2023-02-26T12:43:14.499Z,2.97
2023-02-26T12:44:14.650Z,3.10
2023-02-26T12:45:15.267Z,3.16
2023-02-26T12:46:14.529Z,3.04
2023-02-26T12:47:14.686Z,2.95
2023-02-26T12:48:14.431Z,2.84
2023-02-26T12:49:14.454Z,2.83
2023-02-26T12:50:14.481Z,2.76
2023-02-26T12:51:14.416Z,2.71
2023-02-26T12:52:14.400Z,2.58
2023-02-26T12:53:14.380Z,2.50
2023-02-26T12:54:14.398Z,2.38
2023-02-26T12:55:14.919Z,2.38
2023-02-26T12:56:14.323Z,2.32
2023-02-26T12:57:14.469Z,2.33
2023-02-26T12:58:14.296Z,2.62
2023-02-26T12:59:14.428Z,2.87
2023-02-26T13:00:14.281Z,3.19
2023-02-26T13:01:14.304Z,3.49
2023-02-26T13:02:14.257Z,3.77